sensor_id;sensor_type;location;lat;lon;timestamp;P1;durP1;ratioP1;P2;durP2;ratioP2
18568;SDS011;14780;48.316;-1.050;2022-09-09T00:00:23;6.28;;;2.63;;
18568;SDS011;14780;48.316;-1.050;2022-09-09T00:09:06;6.13;;;2.70;;
18568;SDS011;14780;48.316;-1.050;2022-09-09T00:15:11;6.30;;;2.63;;
18568;SDS011;14780;48.316;-1.050;2022-09-09T00:21:11;6.93;;;3.05;;
18568;SDS011;14780;48.316;-1.050;2022-09-09T00:24:04;6.70;;;2.92;;
18568;SDS011;14780;48.316;-1.050;2022-09-09T00:27:01;6.13;;;2.60;;
18568;SDS011;14780;48.316;-1.050;2022-09-09T00:30:11;7.25;;;2.70;;
18568;SDS011;14780;48.316;-1.050;2022-09-09T00:33:03;5.63;;;2.75;;
18568;SDS011;14780;48.316;-1.050;2022-09-09T00:35:58;9.85;;;2.80;;
18568;SDS011;14780;48.316;-1.050;2022-09-09T00:38:48;6.65;;;2.83;;
18568;SDS011;14780;48.316;-1.050;2022-09-09T00:47:57;5.13;;;2.67;;
18568;SDS011;14780;48.316;-1.050;2022-09-09T00:50:56;6.20;;;2.70;;
18568;SDS011;14780;48.316;-1.050;2022-09-09T00:54:03;6.47;;;2.55;;
18568;SDS011;14780;48.316;-1.050;2022-09-09T00:59:50;5.38;;;2.83;;
18568;SDS011;14780;48.316;-1.050;2022-09-09T01:02:48;6.45;;;2.90;;
18568;SDS011;14780;48.316;-1.050;2022-09-09T01:05:37;5.47;;;2.43;;
18568;SDS011;14780;48.316;-1.050;2022-09-09T01:14:48;4.68;;;2.30;;
18568;SDS011;14780;48.316;-1.050;2022-09-09T01:17:47;5.53;;;2.53;;
18568;SDS011;14780;48.316;-1.050;2022-09-09T01:20:46;5.70;;;2.38;;
18568;SDS011;14780;48.316;-1.050;2022-09-09T01:26:47;5.63;;;2.63;;
18568;SDS011;14780;48.316;-1.050;2022-09-09T01:29:35;4.63;;;2.53;;
18568;SDS011;14780;48.316;-1.050;2022-09-09T01:32:37;4.47;;;2.55;;
18568;SDS011;14780;48.316;-1.050;2022-09-09T01:35:31;5.47;;;2.50;;
18568;SDS011;14780;48.316;-1.050;2022-09-09T01:38:26;5.25;;;2.42;;
18568;SDS011;14780;48.316;-1.050;2022-09-09T01:41:13;4.03;;;2.40;;
18568;SDS011;14780;48.316;-1.050;2022-09-09T01:43:58;6.03;;;2.40;;
18568;SDS011;14780;48.316;-1.050;2022-09-09T01:46:43;4.38;;;2.40;;
18568;SDS011;14780;48.316;-1.050;2022-09-09T01:49:27;5.05;;;2.53;;
18568;SDS011;14780;48.316;-1.050;2022-09-09T01:52:12;5.35;;;2.55;;
18568;SDS011;14780;48.316;-1.050;2022-09-09T01:54:57;4.70;;;2.50;;
18568;SDS011;14780;48.316;-1.050;2022-09-09T02:01:02;4.47;;;2.33;;
18568;SDS011;14780;48.316;-1.050;2022-09-09T02:04:01;5.57;;;2.80;;
18568;SDS011;14780;48.316;-1.050;2022-09-09T02:06:59;5.45;;;2.63;;
18568;SDS011;14780;48.316;-1.050;2022-09-09T02:09:45;6.50;;;2.55;;
18568;SDS011;14780;48.316;-1.050;2022-09-09T02:12:33;4.00;;;2.40;;
18568;SDS011;14780;48.316;-1.050;2022-09-09T02:16:03;4.43;;;2.30;;
18568;SDS011;14780;48.316;-1.050;2022-09-09T02:18:28;6.25;;;2.63;;
18568;SDS011;14780;48.316;-1.050;2022-09-09T02:21:18;4.90;;;2.63;;
18568;SDS011;14780;48.316;-1.050;2022-09-09T02:24:06;6.63;;;2.53;;
18568;SDS011;14780;48.316;-1.050;2022-09-09T02:26:54;4.95;;;2.40;;
18568;SDS011;14780;48.316;-1.050;2022-09-09T02:29:41;5.30;;;2.40;;
18568;SDS011;14780;48.316;-1.050;2022-09-09T02:32:28;6.07;;;2.22;;
18568;SDS011;14780;48.316;-1.050;2022-09-09T02:35:17;4.47;;;2.55;;
18568;SDS011;14780;48.316;-1.050;2022-09-09T02:38:06;4.97;;;2.50;;
18568;SDS011;14780;48.316;-1.050;2022-09-09T02:40:54;5.88;;;2.53;;
18568;SDS011;14780;48.316;-1.050;2022-09-09T02:43:39;5.00;;;2.67;;
18568;SDS011;14780;48.316;-1.050;2022-09-09T02:46:27;4.65;;;2.40;;
18568;SDS011;14780;48.316;-1.050;2022-09-09T02:53:07;4.88;;;2.53;;
18568;SDS011;14780;48.316;-1.050;2022-09-09T02:56:08;4.65;;;2.50;;
18568;SDS011;14780;48.316;-1.050;2022-09-09T02:59:02;5.47;;;2.28;;
18568;SDS011;14780;48.316;-1.050;2022-09-09T03:01:48;8.00;;;2.65;;
18568;SDS011;14780;48.316;-1.050;2022-09-09T03:04:32;4.95;;;2.22;;
18568;SDS011;14780;48.316;-1.050;2022-09-09T03:07:17;4.78;;;2.42;;
18568;SDS011;14780;48.316;-1.050;2022-09-09T03:10:03;4.78;;;2.28;;
18568;SDS011;14780;48.316;-1.050;2022-09-09T03:12:48;5.50;;;2.25;;
18568;SDS011;14780;48.316;-1.050;2022-09-09T03:15:33;3.88;;;2.30;;
18568;SDS011;14780;48.316;-1.050;2022-09-09T03:18:18;4.60;;;2.50;;
18568;SDS011;14780;48.316;-1.050;2022-09-09T03:21:03;5.15;;;2.45;;
18568;SDS011;14780;48.316;-1.050;2022-09-09T03:23:48;6.47;;;2.58;;
18568;SDS011;14780;48.316;-1.050;2022-09-09T03:26:33;5.20;;;2.53;;
18568;SDS011;14780;48.316;-1.050;2022-09-09T03:29:17;5.20;;;2.50;;
18568;SDS011;14780;48.316;-1.050;2022-09-09T03:32:02;4.97;;;2.25;;
18568;SDS011;14780;48.316;-1.050;2022-09-09T03:34:48;5.30;;;2.20;;
18568;SDS011;14780;48.316;-1.050;2022-09-09T03:37:35;5.28;;;2.30;;
18568;SDS011;14780;48.316;-1.050;2022-09-09T03:40:22;5.05;;;2.33;;
18568;SDS011;14780;48.316;-1.050;2022-09-09T03:43:07;6.88;;;2.40;;
18568;SDS011;14780;48.316;-1.050;2022-09-09T03:45:53;6.40;;;2.40;;
18568;SDS011;14780;48.316;-1.050;2022-09-09T03:48:40;5.95;;;2.38;;
18568;SDS011;14780;48.316;-1.050;2022-09-09T03:51:25;4.63;;;2.30;;
18568;SDS011;14780;48.316;-1.050;2022-09-09T03:54:10;2.97;;;1.98;;
18568;SDS011;14780;48.316;-1.050;2022-09-09T03:56:54;4.35;;;1.95;;
18568;SDS011;14780;48.316;-1.050;2022-09-09T03:59:40;4.43;;;2.10;;
18568;SDS011;14780;48.316;-1.050;2022-09-09T04:02:24;5.13;;;2.20;;
18568;SDS011;14780;48.316;-1.050;2022-09-09T04:05:09;5.15;;;2.55;;
18568;SDS011;14780;48.316;-1.050;2022-09-09T04:07:54;5.25;;;2.30;;
18568;SDS011;14780;48.316;-1.050;2022-09-09T04:10:39;5.22;;;2.47;;
18568;SDS011;14780;48.316;-1.050;2022-09-09T04:13:24;3.97;;;2.05;;
18568;SDS011;14780;48.316;-1.050;2022-09-09T04:16:09;4.85;;;2.28;;
18568;SDS011;14780;48.316;-1.050;2022-09-09T04:18:56;4.72;;;2.25;;
18568;SDS011;14780;48.316;-1.050;2022-09-09T04:21:41;6.05;;;2.45;;
18568;SDS011;14780;48.316;-1.050;2022-09-09T04:24:26;5.75;;;2.47;;
18568;SDS011;14780;48.316;-1.050;2022-09-09T04:27:12;3.78;;;2.22;;
18568;SDS011;14780;48.316;-1.050;2022-09-09T04:29:57;3.35;;;2.13;;
18568;SDS011;14780;48.316;-1.050;2022-09-09T04:32:42;3.85;;;1.83;;
18568;SDS011;14780;48.316;-1.050;2022-09-09T04:35:27;5.30;;;2.40;;
18568;SDS011;14780;48.316;-1.050;2022-09-09T04:38:11;4.97;;;2.15;;
18568;SDS011;14780;48.316;-1.050;2022-09-09T04:40:57;4.32;;;2.20;;
18568;SDS011;14780;48.316;-1.050;2022-09-09T04:43:42;4.60;;;2.25;;
18568;SDS011;14780;48.316;-1.050;2022-09-09T04:46:27;5.22;;;2.22;;
18568;SDS011;14780;48.316;-1.050;2022-09-09T04:49:11;5.28;;;2.30;;
18568;SDS011;14780;48.316;-1.050;2022-09-09T04:51:56;4.55;;;2.05;;
18568;SDS011;14780;48.316;-1.050;2022-09-09T04:54:41;4.38;;;2.40;;
18568;SDS011;14780;48.316;-1.050;2022-09-09T04:57:25;4.68;;;2.30;;
18568;SDS011;14780;48.316;-1.050;2022-09-09T05:00:10;5.05;;;2.15;;
18568;SDS011;14780;48.316;-1.050;2022-09-09T05:02:56;4.45;;;2.22;;
18568;SDS011;14780;48.316;-1.050;2022-09-09T05:05:41;4.57;;;2.13;;
18568;SDS011;14780;48.316;-1.050;2022-09-09T05:08:26;4.95;;;2.50;;
18568;SDS011;14780;48.316;-1.050;2022-09-09T05:14:02;3.10;;;2.00;;
18568;SDS011;14780;48.316;-1.050;2022-09-09T05:16:47;4.55;;;2.30;;
18568;SDS011;14780;48.316;-1.050;2022-09-09T05:19:33;7.22;;;2.60;;
18568;SDS011;14780;48.316;-1.050;2022-09-09T05:22:21;4.22;;;2.03;;
18568;SDS011;14780;48.316;-1.050;2022-09-09T05:25:07;3.55;;;1.95;;
18568;SDS011;14780;48.316;-1.050;2022-09-09T05:27:52;3.65;;;1.92;;
18568;SDS011;14780;48.316;-1.050;2022-09-09T05:30:37;3.38;;;1.77;;
18568;SDS011;14780;48.316;-1.050;2022-09-09T05:33:22;3.63;;;1.90;;
18568;SDS011;14780;48.316;-1.050;2022-09-09T05:36:13;4.65;;;2.22;;
18568;SDS011;14780;48.316;-1.050;2022-09-09T05:39:02;4.35;;;2.05;;
18568;SDS011;14780;48.316;-1.050;2022-09-09T05:41:47;6.13;;;2.45;;
18568;SDS011;14780;48.316;-1.050;2022-09-09T05:44:32;4.60;;;2.05;;
18568;SDS011;14780;48.316;-1.050;2022-09-09T05:47:17;5.18;;;2.00;;
18568;SDS011;14780;48.316;-1.050;2022-09-09T05:50:02;4.70;;;2.33;;
18568;SDS011;14780;48.316;-1.050;2022-09-09T05:52:47;5.30;;;2.13;;
18568;SDS011;14780;48.316;-1.050;2022-09-09T05:55:33;3.78;;;1.90;;
18568;SDS011;14780;48.316;-1.050;2022-09-09T05:58:18;4.07;;;2.10;;
18568;SDS011;14780;48.316;-1.050;2022-09-09T06:01:07;3.55;;;1.77;;
18568;SDS011;14780;48.316;-1.050;2022-09-09T06:03:53;3.58;;;2.20;;
18568;SDS011;14780;48.316;-1.050;2022-09-09T06:06:39;3.78;;;2.10;;
18568;SDS011;14780;48.316;-1.050;2022-09-09T06:09:25;3.78;;;2.25;;
18568;SDS011;14780;48.316;-1.050;2022-09-09T06:12:10;4.38;;;2.15;;
18568;SDS011;14780;48.316;-1.050;2022-09-09T06:14:54;7.53;;;2.38;;
18568;SDS011;14780;48.316;-1.050;2022-09-09T06:17:40;6.30;;;2.45;;
18568;SDS011;14780;48.316;-1.050;2022-09-09T06:20:25;13.82;;;5.38;;
18568;SDS011;14780;48.316;-1.050;2022-09-09T06:23:09;14.77;;;6.57;;
18568;SDS011;14780;48.316;-1.050;2022-09-09T06:26:06;10.07;;;3.80;;
18568;SDS011;14780;48.316;-1.050;2022-09-09T06:28:54;10.32;;;4.57;;
18568;SDS011;14780;48.316;-1.050;2022-09-09T06:31:40;12.38;;;4.32;;
18568;SDS011;14780;48.316;-1.050;2022-09-09T06:34:25;8.60;;;3.90;;
18568;SDS011;14780;48.316;-1.050;2022-09-09T06:37:10;9.57;;;3.90;;
18568;SDS011;14780;48.316;-1.050;2022-09-09T06:39:54;9.57;;;4.05;;
18568;SDS011;14780;48.316;-1.050;2022-09-09T06:42:39;11.95;;;3.95;;
18568;SDS011;14780;48.316;-1.050;2022-09-09T06:45:23;10.77;;;3.42;;
18568;SDS011;14780;48.316;-1.050;2022-09-09T06:48:09;8.93;;;3.58;;
18568;SDS011;14780;48.316;-1.050;2022-09-09T06:51:27;8.45;;;3.75;;
18568;SDS011;14780;48.316;-1.050;2022-09-09T06:54:06;7.45;;;3.20;;
18568;SDS011;14780;48.316;-1.050;2022-09-09T06:56:51;5.70;;;3.00;;
18568;SDS011;14780;48.316;-1.050;2022-09-09T06:59:37;6.70;;;3.13;;
18568;SDS011;14780;48.316;-1.050;2022-09-09T07:02:22;7.05;;;3.42;;
18568;SDS011;14780;48.316;-1.050;2022-09-09T07:05:07;6.65;;;3.40;;
18568;SDS011;14780;48.316;-1.050;2022-09-09T07:07:52;5.82;;;2.95;;
18568;SDS011;14780;48.316;-1.050;2022-09-09T07:10:37;5.35;;;2.80;;
18568;SDS011;14780;48.316;-1.050;2022-09-09T07:13:25;8.43;;;3.03;;
18568;SDS011;14780;48.316;-1.050;2022-09-09T07:16:11;7.93;;;2.90;;
18568;SDS011;14780;48.316;-1.050;2022-09-09T07:18:58;9.10;;;3.15;;
18568;SDS011;14780;48.316;-1.050;2022-09-09T07:21:44;6.93;;;2.78;;
18568;SDS011;14780;48.316;-1.050;2022-09-09T07:24:28;8.02;;;3.20;;
18568;SDS011;14780;48.316;-1.050;2022-09-09T07:27:14;7.63;;;2.80;;
18568;SDS011;14780;48.316;-1.050;2022-09-09T07:29:58;5.38;;;3.03;;
18568;SDS011;14780;48.316;-1.050;2022-09-09T07:32:43;8.43;;;2.63;;
18568;SDS011;14780;48.316;-1.050;2022-09-09T07:35:27;5.60;;;2.67;;
18568;SDS011;14780;48.316;-1.050;2022-09-09T07:38:12;6.85;;;3.00;;
18568;SDS011;14780;48.316;-1.050;2022-09-09T07:41:05;7.22;;;2.90;;
18568;SDS011;14780;48.316;-1.050;2022-09-09T07:43:55;8.40;;;3.17;;
18568;SDS011;14780;48.316;-1.050;2022-09-09T07:46:42;8.75;;;2.90;;
18568;SDS011;14780;48.316;-1.050;2022-09-09T07:49:28;5.85;;;3.05;;
18568;SDS011;14780;48.316;-1.050;2022-09-09T07:52:13;6.85;;;2.90;;
18568;SDS011;14780;48.316;-1.050;2022-09-09T07:54:58;6.78;;;3.08;;
18568;SDS011;14780;48.316;-1.050;2022-09-09T07:57:43;9.07;;;2.90;;
18568;SDS011;14780;48.316;-1.050;2022-09-09T08:00:28;7.75;;;3.00;;
18568;SDS011;14780;48.316;-1.050;2022-09-09T08:03:12;8.02;;;3.30;;
18568;SDS011;14780;48.316;-1.050;2022-09-09T08:06:00;5.85;;;2.80;;
18568;SDS011;14780;48.316;-1.050;2022-09-09T08:08:50;6.95;;;2.90;;
18568;SDS011;14780;48.316;-1.050;2022-09-09T08:11:36;8.13;;;2.90;;
18568;SDS011;14780;48.316;-1.050;2022-09-09T08:14:22;7.10;;;3.03;;
18568;SDS011;14780;48.316;-1.050;2022-09-09T08:17:08;6.78;;;2.70;;
18568;SDS011;14780;48.316;-1.050;2022-09-09T08:19:52;5.97;;;3.00;;
18568;SDS011;14780;48.316;-1.050;2022-09-09T08:22:37;8.75;;;3.20;;
18568;SDS011;14780;48.316;-1.050;2022-09-09T08:25:22;4.93;;;2.53;;
18568;SDS011;14780;48.316;-1.050;2022-09-09T08:28:07;9.13;;;3.40;;
18568;SDS011;14780;48.316;-1.050;2022-09-09T08:30:53;7.15;;;3.00;;
18568;SDS011;14780;48.316;-1.050;2022-09-09T08:33:37;5.72;;;2.60;;
18568;SDS011;14780;48.316;-1.050;2022-09-09T08:36:23;4.85;;;2.40;;
18568;SDS011;14780;48.316;-1.050;2022-09-09T08:39:11;8.95;;;3.33;;
18568;SDS011;14780;48.316;-1.050;2022-09-09T08:51:06;8.85;;;2.88;;
18568;SDS011;14780;48.316;-1.050;2022-09-09T08:53:52;6.43;;;2.60;;
18568;SDS011;14780;48.316;-1.050;2022-09-09T08:56:38;7.78;;;2.50;;
18568;SDS011;14780;48.316;-1.050;2022-09-09T08:59:23;6.60;;;2.40;;
18568;SDS011;14780;48.316;-1.050;2022-09-09T09:02:13;7.15;;;2.95;;
18568;SDS011;14780;48.316;-1.050;2022-09-09T09:08:18;7.95;;;3.03;;
18568;SDS011;14780;48.316;-1.050;2022-09-09T09:11:17;7.32;;;2.85;;
18568;SDS011;14780;48.316;-1.050;2022-09-09T09:14:23;6.00;;;2.58;;
18568;SDS011;14780;48.316;-1.050;2022-09-09T09:20:05;6.38;;;2.70;;
18568;SDS011;14780;48.316;-1.050;2022-09-09T09:22:56;6.78;;;2.60;;
18568;SDS011;14780;48.316;-1.050;2022-09-09T09:25:45;8.68;;;2.97;;
18568;SDS011;14780;48.316;-1.050;2022-09-09T09:28:31;5.93;;;2.47;;
18568;SDS011;14780;48.316;-1.050;2022-09-09T09:31:17;5.38;;;2.72;;
18568;SDS011;14780;48.316;-1.050;2022-09-09T09:34:03;7.00;;;2.70;;
18568;SDS011;14780;48.316;-1.050;2022-09-09T09:36:58;5.95;;;2.75;;
18568;SDS011;14780;48.316;-1.050;2022-09-09T09:39:47;6.70;;;2.60;;
18568;SDS011;14780;48.316;-1.050;2022-09-09T09:42:32;5.43;;;2.55;;
18568;SDS011;14780;48.316;-1.050;2022-09-09T09:45:25;8.90;;;2.58;;
18568;SDS011;14780;48.316;-1.050;2022-09-09T09:48:13;14.38;;;5.53;;
18568;SDS011;14780;48.316;-1.050;2022-09-09T09:50:59;59.88;;;24.08;;
18568;SDS011;14780;48.316;-1.050;2022-09-09T09:53:47;100.85;;;40.35;;
18568;SDS011;14780;48.316;-1.050;2022-09-09T09:56:33;72.95;;;33.90;;
18568;SDS011;14780;48.316;-1.050;2022-09-09T09:59:36;52.08;;;23.17;;
18568;SDS011;14780;48.316;-1.050;2022-09-09T10:02:24;59.90;;;23.75;;
18568;SDS011;14780;48.316;-1.050;2022-09-09T10:05:17;51.33;;;24.38;;
18568;SDS011;14780;48.316;-1.050;2022-09-09T10:08:10;52.10;;;24.48;;
18568;SDS011;14780;48.316;-1.050;2022-09-09T10:20:32;45.80;;;22.02;;
18568;SDS011;14780;48.316;-1.050;2022-09-09T10:32:47;36.42;;;17.55;;
18568;SDS011;14780;48.316;-1.050;2022-09-09T10:39:06;34.15;;;15.80;;
18568;SDS011;14780;48.316;-1.050;2022-09-09T10:51:23;31.33;;;15.02;;
18568;SDS011;14780;48.316;-1.050;2022-09-09T11:00:21;26.17;;;12.00;;
18568;SDS011;14780;48.316;-1.050;2022-09-09T11:03:10;29.17;;;12.93;;
18568;SDS011;14780;48.316;-1.050;2022-09-09T11:06:04;24.73;;;12.10;;
18568;SDS011;14780;48.316;-1.050;2022-09-09T11:08:57;24.95;;;11.80;;
18568;SDS011;14780;48.316;-1.050;2022-09-09T11:11:47;25.67;;;11.10;;
18568;SDS011;14780;48.316;-1.050;2022-09-09T11:17:26;22.57;;;11.43;;
18568;SDS011;14780;48.316;-1.050;2022-09-09T11:20:26;19.25;;;9.13;;
18568;SDS011;14780;48.316;-1.050;2022-09-09T11:23:13;19.73;;;9.88;;
18568;SDS011;14780;48.316;-1.050;2022-09-09T11:26:02;22.05;;;9.82;;
18568;SDS011;14780;48.316;-1.050;2022-09-09T11:38:36;11.35;;;5.65;;
18568;SDS011;14780;48.316;-1.050;2022-09-09T11:41:35;12.23;;;4.90;;
18568;SDS011;14780;48.316;-1.050;2022-09-09T11:50:22;9.02;;;4.63;;
18568;SDS011;14780;48.316;-1.050;2022-09-09T11:53:20;10.77;;;4.70;;
18568;SDS011;14780;48.316;-1.050;2022-09-09T11:56:12;10.90;;;4.65;;
18568;SDS011;14780;48.316;-1.050;2022-09-09T11:59:23;14.20;;;4.40;;
18568;SDS011;14780;48.316;-1.050;2022-09-09T12:02:18;10.15;;;3.97;;
18568;SDS011;14780;48.316;-1.050;2022-09-09T12:05:11;9.32;;;4.40;;
18568;SDS011;14780;48.316;-1.050;2022-09-09T12:07:59;12.45;;;4.30;;
18568;SDS011;14780;48.316;-1.050;2022-09-09T12:10:54;11.35;;;4.78;;
18568;SDS011;14780;48.316;-1.050;2022-09-09T12:13:51;8.63;;;4.22;;
18568;SDS011;14780;48.316;-1.050;2022-09-09T12:16:38;8.70;;;4.20;;
18568;SDS011;14780;48.316;-1.050;2022-09-09T12:19:23;8.25;;;3.85;;
18568;SDS011;14780;48.316;-1.050;2022-09-09T12:22:11;11.68;;;4.13;;
18568;SDS011;14780;48.316;-1.050;2022-09-09T12:25:27;7.80;;;3.67;;
18568;SDS011;14780;48.316;-1.050;2022-09-09T12:32:02;8.38;;;3.80;;
18568;SDS011;14780;48.316;-1.050;2022-09-09T12:37:52;12.63;;;5.50;;
18568;SDS011;14780;48.316;-1.050;2022-09-09T12:40:40;11.50;;;5.50;;
18568;SDS011;14780;48.316;-1.050;2022-09-09T12:43:26;11.95;;;5.63;;
18568;SDS011;14780;48.316;-1.050;2022-09-09T12:46:19;10.07;;;6.07;;
18568;SDS011;14780;48.316;-1.050;2022-09-09T12:52:24;9.40;;;3.88;;
18568;SDS011;14780;48.316;-1.050;2022-09-09T12:55:20;9.10;;;3.85;;
18568;SDS011;14780;48.316;-1.050;2022-09-09T12:58:11;10.90;;;3.63;;
18568;SDS011;14780;48.316;-1.050;2022-09-09T13:01:01;7.28;;;3.10;;
18568;SDS011;14780;48.316;-1.050;2022-09-09T13:03:50;6.65;;;3.00;;
18568;SDS011;14780;48.316;-1.050;2022-09-09T13:06:35;7.30;;;2.72;;
18568;SDS011;14780;48.316;-1.050;2022-09-09T13:09:20;7.28;;;2.80;;
18568;SDS011;14780;48.316;-1.050;2022-09-09T13:12:06;8.85;;;3.00;;
18568;SDS011;14780;48.316;-1.050;2022-09-09T13:14:58;8.23;;;3.13;;
18568;SDS011;14780;48.316;-1.050;2022-09-09T13:17:48;7.00;;;3.00;;
18568;SDS011;14780;48.316;-1.050;2022-09-09T13:20:36;7.65;;;2.70;;
18568;SDS011;14780;48.316;-1.050;2022-09-09T13:23:21;7.65;;;2.90;;
18568;SDS011;14780;48.316;-1.050;2022-09-09T13:26:21;8.15;;;2.83;;
18568;SDS011;14780;48.316;-1.050;2022-09-09T13:29:16;7.80;;;3.38;;
18568;SDS011;14780;48.316;-1.050;2022-09-09T13:32:06;7.32;;;3.10;;
18568;SDS011;14780;48.316;-1.050;2022-09-09T13:35:01;8.07;;;3.13;;
18568;SDS011;14780;48.316;-1.050;2022-09-09T13:37:46;5.78;;;2.90;;
18568;SDS011;14780;48.316;-1.050;2022-09-09T13:40:30;7.88;;;3.10;;
18568;SDS011;14780;48.316;-1.050;2022-09-09T13:43:18;5.70;;;3.10;;
18568;SDS011;14780;48.316;-1.050;2022-09-09T13:46:22;7.87;;;3.60;;
18568;SDS011;14780;48.316;-1.050;2022-09-09T13:52:13;10.98;;;3.75;;
18568;SDS011;14780;48.316;-1.050;2022-09-09T13:55:00;11.10;;;3.47;;
18568;SDS011;14780;48.316;-1.050;2022-09-09T13:57:51;6.55;;;3.33;;
18568;SDS011;14780;48.316;-1.050;2022-09-09T14:00:39;6.55;;;2.88;;
18568;SDS011;14780;48.316;-1.050;2022-09-09T14:03:24;6.13;;;2.90;;
18568;SDS011;14780;48.316;-1.050;2022-09-09T14:06:09;7.88;;;3.03;;
18568;SDS011;14780;48.316;-1.050;2022-09-09T14:08:54;6.10;;;2.92;;
18568;SDS011;14780;48.316;-1.050;2022-09-09T14:11:39;5.75;;;2.67;;
18568;SDS011;14780;48.316;-1.050;2022-09-09T14:14:24;7.65;;;2.60;;
18568;SDS011;14780;48.316;-1.050;2022-09-09T14:17:09;6.07;;;2.83;;
18568;SDS011;14780;48.316;-1.050;2022-09-09T14:19:54;6.20;;;2.83;;
18568;SDS011;14780;48.316;-1.050;2022-09-09T14:22:39;5.22;;;2.30;;
18568;SDS011;14780;48.316;-1.050;2022-09-09T14:25:24;4.10;;;2.60;;
18568;SDS011;14780;48.316;-1.050;2022-09-09T14:28:10;6.85;;;2.67;;
18568;SDS011;14780;48.316;-1.050;2022-09-09T14:30:58;5.10;;;2.72;;
18568;SDS011;14780;48.316;-1.050;2022-09-09T14:33:44;9.68;;;2.83;;
18568;SDS011;14780;48.316;-1.050;2022-09-09T14:36:29;5.20;;;2.60;;
18568;SDS011;14780;48.316;-1.050;2022-09-09T14:39:14;5.85;;;2.65;;
18568;SDS011;14780;48.316;-1.050;2022-09-09T14:41:59;5.93;;;3.03;;
18568;SDS011;14780;48.316;-1.050;2022-09-09T14:44:44;6.68;;;2.80;;
18568;SDS011;14780;48.316;-1.050;2022-09-09T14:47:29;4.65;;;2.60;;
18568;SDS011;14780;48.316;-1.050;2022-09-09T14:50:13;8.35;;;2.50;;
18568;SDS011;14780;48.316;-1.050;2022-09-09T14:52:58;5.78;;;2.40;;
18568;SDS011;14780;48.316;-1.050;2022-09-09T14:55:43;4.78;;;2.45;;
18568;SDS011;14780;48.316;-1.050;2022-09-09T14:58:32;6.18;;;2.72;;
18568;SDS011;14780;48.316;-1.050;2022-09-09T15:01:18;5.65;;;2.60;;
18568;SDS011;14780;48.316;-1.050;2022-09-09T15:04:04;7.22;;;2.47;;
18568;SDS011;14780;48.316;-1.050;2022-09-09T15:06:50;6.75;;;2.65;;
18568;SDS011;14780;48.316;-1.050;2022-09-09T15:09:36;4.95;;;2.50;;
18568;SDS011;14780;48.316;-1.050;2022-09-09T15:12:21;3.90;;;2.22;;
18568;SDS011;14780;48.316;-1.050;2022-09-09T15:15:05;5.97;;;2.60;;
18568;SDS011;14780;48.316;-1.050;2022-09-09T15:17:50;5.28;;;2.55;;
18568;SDS011;14780;48.316;-1.050;2022-09-09T15:20:35;4.68;;;2.35;;
18568;SDS011;14780;48.316;-1.050;2022-09-09T15:23:20;4.93;;;2.13;;
18568;SDS011;14780;48.316;-1.050;2022-09-09T15:26:06;5.53;;;2.40;;
18568;SDS011;14780;48.316;-1.050;2022-09-09T15:28:51;6.95;;;3.00;;
18568;SDS011;14780;48.316;-1.050;2022-09-09T15:31:36;5.72;;;2.53;;
18568;SDS011;14780;48.316;-1.050;2022-09-09T15:34:20;6.32;;;2.80;;
18568;SDS011;14780;48.316;-1.050;2022-09-09T15:37:06;4.05;;;2.30;;
18568;SDS011;14780;48.316;-1.050;2022-09-09T15:39:54;4.18;;;2.33;;
18568;SDS011;14780;48.316;-1.050;2022-09-09T15:42:39;6.32;;;2.55;;
18568;SDS011;14780;48.316;-1.050;2022-09-09T15:45:23;5.75;;;2.33;;
18568;SDS011;14780;48.316;-1.050;2022-09-09T15:48:10;7.10;;;2.40;;
18568;SDS011;14780;48.316;-1.050;2022-09-09T15:51:02;5.60;;;2.50;;
18568;SDS011;14780;48.316;-1.050;2022-09-09T15:53:48;5.95;;;2.75;;
18568;SDS011;14780;48.316;-1.050;2022-09-09T15:56:37;5.63;;;2.47;;
18568;SDS011;14780;48.316;-1.050;2022-09-09T15:59:23;4.25;;;2.10;;
18568;SDS011;14780;48.316;-1.050;2022-09-09T16:02:09;3.28;;;2.28;;
18568;SDS011;14780;48.316;-1.050;2022-09-09T16:04:53;5.13;;;2.50;;
18568;SDS011;14780;48.316;-1.050;2022-09-09T16:07:38;6.25;;;2.33;;
18568;SDS011;14780;48.316;-1.050;2022-09-09T16:10:23;5.93;;;2.42;;
18568;SDS011;14780;48.316;-1.050;2022-09-09T16:13:07;6.50;;;2.65;;
18568;SDS011;14780;48.316;-1.050;2022-09-09T16:15:55;6.18;;;2.70;;
18568;SDS011;14780;48.316;-1.050;2022-09-09T16:18:41;4.72;;;2.17;;
18568;SDS011;14780;48.316;-1.050;2022-09-09T16:21:30;6.50;;;2.75;;
18568;SDS011;14780;48.316;-1.050;2022-09-09T16:24:17;5.50;;;2.33;;
18568;SDS011;14780;48.316;-1.050;2022-09-09T16:27:02;4.20;;;2.33;;
18568;SDS011;14780;48.316;-1.050;2022-09-09T16:29:47;6.53;;;2.67;;
18568;SDS011;14780;48.316;-1.050;2022-09-09T16:32:33;4.85;;;2.47;;
18568;SDS011;14780;48.316;-1.050;2022-09-09T16:35:18;5.95;;;2.40;;
18568;SDS011;14780;48.316;-1.050;2022-09-09T16:38:04;3.38;;;2.20;;
18568;SDS011;14780;48.316;-1.050;2022-09-09T16:40:50;6.05;;;2.22;;
18568;SDS011;14780;48.316;-1.050;2022-09-09T16:43:41;3.92;;;2.25;;
18568;SDS011;14780;48.316;-1.050;2022-09-09T16:46:27;4.68;;;2.47;;
18568;SDS011;14780;48.316;-1.050;2022-09-09T16:49:13;4.13;;;2.28;;
18568;SDS011;14780;48.316;-1.050;2022-09-09T16:51:59;4.63;;;2.35;;
18568;SDS011;14780;48.316;-1.050;2022-09-09T16:54:44;2.92;;;2.05;;
18568;SDS011;14780;48.316;-1.050;2022-09-09T16:57:29;5.13;;;1.95;;
18568;SDS011;14780;48.316;-1.050;2022-09-09T17:00:14;4.28;;;2.30;;
18568;SDS011;14780;48.316;-1.050;2022-09-09T17:03:00;4.03;;;1.95;;
18568;SDS011;14780;48.316;-1.050;2022-09-09T17:05:46;3.08;;;2.05;;
18568;SDS011;14780;48.316;-1.050;2022-09-09T17:08:30;4.53;;;2.30;;
18568;SDS011;14780;48.316;-1.050;2022-09-09T17:11:17;3.05;;;1.63;;
18568;SDS011;14780;48.316;-1.050;2022-09-09T17:14:03;4.60;;;2.10;;
18568;SDS011;14780;48.316;-1.050;2022-09-09T17:16:48;5.82;;;2.15;;
18568;SDS011;14780;48.316;-1.050;2022-09-09T17:19:34;4.07;;;2.22;;
18568;SDS011;14780;48.316;-1.050;2022-09-09T17:22:19;3.22;;;2.25;;
18568;SDS011;14780;48.316;-1.050;2022-09-09T17:25:04;4.00;;;2.00;;
18568;SDS011;14780;48.316;-1.050;2022-09-09T17:27:49;3.40;;;1.92;;
18568;SDS011;14780;48.316;-1.050;2022-09-09T17:30:34;3.65;;;2.00;;
18568;SDS011;14780;48.316;-1.050;2022-09-09T17:33:20;3.80;;;2.10;;
18568;SDS011;14780;48.316;-1.050;2022-09-09T17:36:18;3.85;;;2.10;;
18568;SDS011;14780;48.316;-1.050;2022-09-09T17:39:08;5.43;;;2.47;;
18568;SDS011;14780;48.316;-1.050;2022-09-09T17:41:53;6.28;;;2.70;;
18568;SDS011;14780;48.316;-1.050;2022-09-09T17:44:38;6.82;;;3.17;;
18568;SDS011;14780;48.316;-1.050;2022-09-09T17:47:23;4.68;;;2.85;;
18568;SDS011;14780;48.316;-1.050;2022-09-09T17:50:09;8.23;;;4.20;;
18568;SDS011;14780;48.316;-1.050;2022-09-09T17:52:56;6.45;;;4.18;;
18568;SDS011;14780;48.316;-1.050;2022-09-09T17:55:41;10.93;;;5.78;;
18568;SDS011;14780;48.316;-1.050;2022-09-09T17:58:27;52.63;;;42.35;;
18568;SDS011;14780;48.316;-1.050;2022-09-09T18:01:13;51.85;;;46.13;;
18568;SDS011;14780;48.316;-1.050;2022-09-09T18:04:01;42.38;;;37.60;;
18568;SDS011;14780;48.316;-1.050;2022-09-09T18:06:48;38.47;;;34.15;;
18568;SDS011;14780;48.316;-1.050;2022-09-09T18:09:34;40.33;;;29.77;;
18568;SDS011;14780;48.316;-1.050;2022-09-09T18:12:21;34.70;;;28.42;;
18568;SDS011;14780;48.316;-1.050;2022-09-09T18:15:06;33.45;;;26.50;;
18568;SDS011;14780;48.316;-1.050;2022-09-09T18:17:51;29.38;;;24.45;;
18568;SDS011;14780;48.316;-1.050;2022-09-09T18:20:35;27.42;;;21.92;;
18568;SDS011;14780;48.316;-1.050;2022-09-09T18:23:20;24.77;;;22.08;;
18568;SDS011;14780;48.316;-1.050;2022-09-09T18:26:06;24.85;;;19.30;;
18568;SDS011;14780;48.316;-1.050;2022-09-09T18:28:54;23.13;;;18.73;;
18568;SDS011;14780;48.316;-1.050;2022-09-09T18:31:40;22.60;;;20.13;;
18568;SDS011;14780;48.316;-1.050;2022-09-09T18:34:24;24.00;;;19.23;;
18568;SDS011;14780;48.316;-1.050;2022-09-09T18:37:11;22.85;;;17.27;;